Circle City, Arizona
Current Conditions -  °F | °C
As of 1:08 AM on Monday 24 Nov 2014 (Local Time) from KLUF Reporting Station
Haze Haze  
Wind Chill: 43°   Ceiling: Unl
Heat Index: 43°   Visibility: 3mi
Dew Point: 19°   Wind: 3mph
Humidity: 39%   Direction: 340°NNW
Pressure: 30.14"   Gusts: NA
Location:  33.8631°N, 112.556°W
Report Text: KLUF 240808Z AUTO 34003KT 3SM HZ CLR 06/M07 A3014 RMK AO2 $
Loading
Personal Weather Stations






























Interactive Weather Map New forecast layout! Learn more

10-Day Weather Forecast

Advertisements
Track Severe Weather on mobile